Hauptseite
METAR-TAF:

METAR-TAF

Flughäfen :

Militärflugplatz Cognac-Châteaubernard

Cognac, Frankreich

Breite: 45-40N, Länge: 000-19W, Höhe: 30 m

Beobachtung

Neuester Wetterbericht von vor 31 Minuten, um 13:00 UTC
Wind 6 kt aus Nord/Nordwest, variierte zwischen West/Nordwest und Nord/Nordost
Temperatur 24°C
Luftfeuchtigkeit 61%
Luftdruck 1020 hPa
Sichtweite 10 km oder mehr
Leicht bewölkt in der Höhe von 2900 ft
Durchbrochene Bewölkung in der Höhe von 5200 ft
Geschlossene Wolkendecke in der Höhe von 6800 ft

METAR: LFBG 171300Z AUTO 33006KT 290V020 9999 FEW029 BKN052 OVC068 24/16 Q1020 NOSIG

Zeit: 15:31 (13:31 UTC)

Prognose

Neuester Wetterbericht von vor 5 Stunden und 31 Minuten, um 08:00 UTC
Gültige Prognose vom 17 um 09 UTC bis 18 um 09 UTC
Wind 7 kt aus West
Sichtweite 10 km oder mehr
Durchbrochene Bewölkung in der Höhe von 4000 ft

TAF: LFBG 170800Z 1709/1809 27007KT 9999 BKN040

Wetterbeobachtungen und Prognosen von mehr als 4000 Flughäfen (METAR und TAF Bericht).

Die verfügbaren Stationen werden durch gelbe und rote Markierungen auf der Karte dargestellt.

Führen Sie die Maus auf sie, um den Namen der Station zu sehen.

Darauf klicken, um die Beobachtung von Wetterbeobachtungen und Prognosen zu sehen.

Um die Karte zu ändern : klicken Sie auf den grünen Tasten mit einem schwarzen Kreuz Zum Vergrößern, auf den grünen Button mit einem Gedankenstrich zu verkleinern, oder auf die grünen Pfeile für benachbarte Karten.


METAR-TAF: